Time;durP1;ratioP1;P1;durP2;ratioP2;P2;SDS_P1;SDS_P2;PMS_P1;PMS_P2;Temp;Humidity;BMP_temperature;BMP_pressure;BME280_temperature;BME280_humidity;BME280_pressure;Samples;Min_cycle;Max_cycle;Signal;HPM_P1;HPM_P2
2023/07/08 00:05:57;;;;;;;3.08;2.13;;;;;;;;;;20908818;28;20233;-83
2023/07/08 00:15:59;;;;;;;4.50;2.35;;;;;;;;;;20912707;28;20228;-83
2023/07/08 00:26:01;;;;;;;3.75;2.50;;;;;;;;;;20915138;28;20271;-83
2023/07/08 00:36:10;;;;;;;3.97;2.33;;;26.00;81.00;;;;;;20902904;28;20266;-84
2023/07/08 00:46:32;;;;;;;4.10;2.20;;;26.00;80.90;;;;;;20909487;28;20287;-83
2023/07/08 00:56:38;;;;;;;3.80;2.00;;;;;;;;;;20873109;28;20259;-85
2023/07/08 01:06:42;;;;;;;5.05;2.33;;;;;;;;;;20915668;28;20597;-84
2023/07/08 01:16:44;;;;;;;2.70;1.77;;;;;;;;;;20915278;28;20278;-82
2023/07/08 01:26:46;;;;;;;4.47;2.40;;;;;;;;;;20931348;28;20253;-83
2023/07/08 01:36:53;;;;;;;3.08;2.15;;;25.50;88.00;;;;;;20934056;28;20267;-84
2023/07/08 01:46:56;;;;;;;3.38;2.03;;;;;;;;;;20886159;28;20568;-84
2023/07/08 01:56:58;;;;;;;4.63;2.20;;;;;;;;;;20906431;28;20293;-83
2023/07/08 02:07:00;;;;;;;5.28;2.10;;;;;;;;;;20915741;28;20285;-84
2023/07/08 02:17:05;;;;;;;3.85;2.28;;;;;;;;;;20951908;28;20225;-84
2023/07/08 02:27:07;;;;;;;2.50;1.77;;;;;;;;;;20936724;28;20570;-84
2023/07/08 02:37:09;;;;;;;4.07;2.30;;;;;;;;;;20992336;28;20716;-82
2023/07/08 02:47:11;;;;;;;10.80;2.45;;;;;;;;;;20927530;28;20232;-83
2023/07/08 02:57:13;;;;;;;4.15;2.30;;;;;;;;;;20941785;28;20228;-83
2023/07/08 03:07:14;;;;;;;6.68;2.22;;;;;;;;;;20936041;28;20247;-81
2023/07/08 03:17:17;;;;;;;4.05;2.42;;;;;;;;;;20939967;28;20756;-82
2023/07/08 03:27:20;;;;;;;6.47;2.33;;;;;;;;;;20935659;28;20786;-83
2023/07/08 03:37:25;;;;;;;4.72;2.10;;;;;;;;;;20966775;28;20289;-83
2023/07/08 03:47:27;;;;;;;4.78;1.98;;;;;;;;;;20891751;28;20235;-84
2023/07/08 03:57:29;;;;;;;9.32;2.70;;;;;;;;;;20878831;28;20295;-81
2023/07/08 04:07:31;;;;;;;4.40;2.47;;;;;;;;;;20943084;28;20242;-82
2023/07/08 04:17:33;;;;;;;3.33;1.75;;;;;;;;;;20884659;28;20770;-83
2023/07/08 04:27:35;;;;;;;5.35;1.85;;;;;;;;;;20889867;28;20260;-81
2023/07/08 04:37:38;;;;;;;5.80;2.40;;;;;;;;;;20933321;28;20597;-84
2023/07/08 04:47:39;;;;;;;4.10;2.42;;;;;;;;;;20913790;28;20276;-81
2023/07/08 04:57:41;;;;;;;2.92;1.98;;;;;;;;;;20958213;28;20237;-81
2023/07/08 05:07:43;;;;;;;3.33;2.17;;;;;;;;;;20941835;28;20238;-82
2023/07/08 05:17:44;;;;;;;5.72;2.53;;;;;;;;;;20898418;28;20214;-83
2023/07/08 05:27:46;;;;;;;3.75;2.35;;;24.00;99.90;;;;;;20928598;28;20298;-83
2023/07/08 05:37:48;;;;;;;4.95;1.92;;;;;;;;;;20950977;28;20336;-82
2023/07/08 05:47:50;;;;;;;4.25;2.42;;;;;;;;;;20966981;28;20239;-82
2023/07/08 05:57:51;;;;;;;3.10;1.80;;;;;;;;;;20916281;28;20232;-82
2023/07/08 06:07:54;;;;;;;3.70;2.00;;;;;;;;;;20949927;28;20276;-81
2023/07/08 06:18:00;;;;;;;2.97;1.83;;;;;;;;;;20966420;28;20694;-80
2023/07/08 06:28:02;;;;;;;7.53;2.15;;;;;;;;;;20918237;28;20323;-82
2023/07/08 06:38:03;;;;;;;2.85;1.95;;;;;;;;;;20947173;28;20226;-81
2023/07/08 06:48:07;;;;;;;4.03;2.10;;;;;;;;;;20929687;28;20292;-81
2023/07/08 06:58:09;;;;;;;3.35;1.88;;;;;;;;;;20926943;28;20718;-81
2023/07/08 07:08:11;;;;;;;3.08;1.98;;;;;;;;;;20923886;28;20272;-80
2023/07/08 07:18:12;;;;;;;2.28;1.58;;;;;;;;;;20975531;28;20235;-82
2023/07/08 07:28:16;;;;;;;3.00;1.48;;;;;;;;;;20953130;28;20303;-80
2023/07/08 07:38:19;;;;;;;3.03;1.70;;;;;;;;;;20930034;28;20255;-79
2023/07/08 07:48:21;;;;;;;2.47;1.30;;;;;;;;;;20960886;28;20283;-79
2023/07/08 07:58:23;;;;;;;2.70;1.15;;;;;;;;;;20985940;28;20253;-84
2023/07/08 08:08:25;;;;;;;2.60;1.23;;;;;;;;;;20926297;28;20833;-80
2023/07/08 08:18:26;;;;;;;1.90;0.98;;;;;;;;;;20930058;28;20219;-81
2023/07/08 08:28:28;;;;;;;2.78;1.33;;;;;;;;;;20971028;28;20280;-81
2023/07/08 08:38:31;;;;;;;1.35;0.93;;;;;;;;;;20959101;28;20737;-81
2023/07/08 08:48:35;;;;;;;3.55;1.10;;;;;;;;;;20950301;28;20306;-81
2023/07/08 08:58:42;;;;;;;2.58;1.30;;;;;;;;;;20946175;28;20766;-82
2023/07/08 09:08:44;;;;;;;2.63;1.15;;;;;;;;;;20933558;28;20228;-79
2023/07/08 09:19:24;;;;;;;1.80;0.93;;;27.70;99.90;;;;;;20934769;28;20224;-80
2023/07/08 09:29:26;;;;;;;2.58;1.42;;;;;;;;;;20946974;28;20300;-81
2023/07/08 09:39:30;;;;;;;2.15;1.10;;;;;;;;;;20922628;28;20550;-80
2023/07/08 09:49:32;;;;;;;1.77;1.10;;;;;;;;;;20984601;28;20302;-78
2023/07/08 09:59:46;;;;;;;2.95;1.23;;;;;;;;;;20943017;28;20236;-81
2023/07/08 10:09:51;;;;;;;2.35;1.05;;;;;;;;;;20953748;28;20266;-82
2023/07/08 10:19:53;;;;;;;3.53;1.25;;;;;;;;;;20970610;28;20290;-80
2023/07/08 10:30:07;;;;;;;3.35;1.50;;;;;;;;;;20983779;28;20265;-80
2023/07/08 10:40:14;;;;;;;2.97;1.23;;;;;;;;;;20972306;28;20233;-79
2023/07/08 10:50:16;;;;;;;2.92;1.02;;;;;;;;;;20946945;28;20784;-81
2023/07/08 11:00:38;;;;;;;2.08;1.15;;;;;;;;;;20945974;28;20295;-82
2023/07/08 11:10:53;;;;;;;2.03;1.20;;;30.40;88.20;;;;;;20941747;28;20217;-80
2023/07/08 11:21:21;;;;;;;3.92;1.20;;;;;;;;;;20960433;28;20232;-80
2023/07/08 11:31:23;;;;;;;2.25;1.00;;;;;;;;;;20939348;28;20579;-81
2023/07/08 11:41:28;;;;;;;3.10;1.15;;;;;;;;;;20962936;28;20232;-82
2023/07/08 11:51:32;;;;;;;1.95;0.90;;;;;;;;;;20964685;28;20240;-81
2023/07/08 12:01:47;;;;;;;2.83;1.23;;;31.60;94.10;;;;;;20956976;28;20604;-81
2023/07/08 12:11:52;;;;;;;3.83;1.08;;;;;;;;;;20954368;28;20271;-81
2023/07/08 12:21:54;;;;;;;2.63;1.48;;;;;;;;;;20961391;28;20579;-80
2023/07/08 12:31:56;;;;;;;2.25;1.30;;;;;;;;;;20956386;28;20221;-82
2023/07/08 12:41:58;;;;;;;2.50;1.10;;;;;;;;;;20954264;28;20278;-83
2023/07/08 12:52:00;;;;;;;2.47;1.27;;;;;;;;;;20952142;28;20234;-82
2023/07/08 13:02:04;;;;;;;2.58;1.10;;;;;;;;;;20952944;28;20243;-81
2023/07/08 13:12:14;;;;;;;1.70;1.00;;;;;;;;;;20935376;28;20222;-83
2023/07/08 13:22:21;;;;;;;3.30;1.00;;;32.80;84.50;;;;;;20935285;28;20225;-82
2023/07/08 13:32:31;;;;;;;2.40;0.98;;;;;;;;;;20957109;28;20222;-82
2023/07/08 13:42:32;;;;;;;1.52;1.00;;;;;;;;;;20889654;28;20264;-83
2023/07/08 13:52:42;;;;;;;1.35;0.88;;;;;;;;;;20955745;28;20572;-83
2023/07/08 14:02:45;;;;;;;4.00;1.10;;;33.10;81.90;;;;;;20988310;28;20237;-83
2023/07/08 14:12:48;;;;;;;1.52;1.00;;;;;;;;;;20956465;28;20288;-83
2023/07/08 14:22:51;;;;;;;1.48;1.08;;;;;;;;;;20932847;28;20244;-81
2023/07/08 14:32:53;;;;;;;1.75;0.70;;;;;;;;;;20963398;28;20230;-84
2023/07/08 14:43:01;;;;;;;1.52;0.80;;;;;;;;;;20963955;28;20628;-83
2023/07/08 14:53:03;;;;;;;1.65;0.85;;;;;;;;;;20932449;28;20238;-83
2023/07/08 15:03:05;;;;;;;1.90;0.80;;;;;;;;;;20930255;28;20240;-83
2023/07/08 15:13:09;;;;;;;2.15;0.90;;;;;;;;;;20914603;28;20308;-85
2023/07/08 15:23:12;;;;;;;1.30;0.90;;;;;;;;;;20912786;28;20699;-86
2023/07/08 15:33:16;;;;;;;1.20;0.80;;;;;;;;;;20906579;28;20217;-84
2023/07/08 15:43:18;;;;;;;1.55;0.80;;;;;;;;;;20942190;28;20291;-83
2023/07/08 15:53:20;;;;;;;1.98;0.70;;;;;;;;;;20930276;28;20326;-83
2023/07/08 16:03:23;;;;;;;1.38;0.80;;;;;;;;;;20893318;28;20336;-83
2023/07/08 16:13:29;;;;;;;2.13;0.90;;;;;;;;;;20898621;28;20280;-83
2023/07/08 16:23:33;;;;;;;1.42;0.98;;;;;;;;;;20940693;28;20292;-83
2023/07/08 16:33:35;;;;;;;1.45;0.80;;;;;;;;;;20934578;28;20218;-83
2023/07/08 16:43:37;;;;;;;1.73;0.93;;;;;;;;;;20910817;28;20294;-83
2023/07/08 16:53:39;;;;;;;1.17;0.60;;;;;;;;;;20931858;28;20242;-83
2023/07/08 17:03:40;;;;;;;2.03;0.60;;;;;;;;;;20889852;28;20230;-83
2023/07/08 17:13:42;;;;;;;1.77;0.80;;;;;;;;;;20904939;28;20256;-84
2023/07/08 17:23:45;;;;;;;1.65;0.93;;;;;;;;;;20928816;28;20272;-81
2023/07/08 17:33:51;;;;;;;1.40;0.80;;;;;;;;;;20899136;28;20275;-82
2023/07/08 17:43:52;;;;;;;1.50;0.80;;;;;;;;;;20941552;28;20628;-82
2023/07/08 17:53:55;;;;;;;1.10;0.73;;;;;;;;;;20944322;28;20242;-84
2023/07/08 18:03:57;;;;;;;2.03;1.10;;;;;;;;;;20907201;28;20225;-83
2023/07/08 18:13:59;;;;;;;3.10;1.10;;;;;;;;;;20962693;28;20221;-82
2023/07/08 18:24:01;;;;;;;1.67;1.02;;;;;;;;;;20908924;28;20234;-80
2023/07/08 18:34:05;;;;;;;1.83;1.00;;;;;;;;;;20950273;28;20272;-80
2023/07/08 18:44:07;;;;;;;2.25;0.98;;;;;;;;;;20922489;28;20822;-82
2023/07/08 18:54:19;;;;;;;4.68;1.02;;;;;;;;;;20948905;28;20222;-81
2023/07/08 19:04:21;;;;;;;2.30;1.10;;;;;;;;;;20928794;28;20714;-83
2023/07/08 19:14:23;;;;;;;1.73;0.80;;;;;;;;;;20949724;28;20213;-81
2023/07/08 19:24:25;;;;;;;2.65;1.17;;;;;;;;;;20959143;28;20217;-81
2023/07/08 19:34:26;;;;;;;2.40;1.10;;;;;;;;;;20922380;28;20277;-82
2023/07/08 19:44:28;;;;;;;2.33;0.90;;;;;;;;;;20894911;28;20304;-83
2023/07/08 19:54:31;;;;;;;2.25;1.20;;;;;;;;;;20947946;28;20241;-82
2023/07/08 20:04:36;;;;;;;1.35;0.85;;;;;;;;;;20943022;28;20796;-83
2023/07/08 20:14:38;;;;;;;1.63;0.85;;;;;;;;;;20912702;28;20270;-83
2023/07/08 20:24:39;;;;;;;2.00;1.00;;;;;;;;;;20931423;28;20310;-82
2023/07/08 20:34:41;;;;;;;3.22;1.20;;;;;;;;;;20958466;28;20242;-81
2023/07/08 20:44:43;;;;;;;4.78;1.38;;;;;;;;;;20894060;28;20233;-82
2023/07/08 20:54:46;;;;;;;2.67;1.20;;;;;;;;;;20921805;28;20275;-84
2023/07/08 21:04:49;;;;;;;3.28;1.23;;;;;;;;;;20977457;28;20668;-82
2023/07/08 21:14:51;;;;;;;4.57;1.17;;;;;;;;;;20939569;28;20544;-82
2023/07/08 21:24:53;;;;;;;2.80;1.23;;;;;;;;;;20925156;28;20240;-82
2023/07/08 21:34:55;;;;;;;3.03;1.10;;;;;;;;;;20923989;28;20361;-81
2023/07/08 21:44:57;;;;;;;3.13;1.13;;;;;;;;;;20963064;28;20262;-82
2023/07/08 21:54:58;;;;;;;2.13;1.23;;;;;;;;;;20927005;28;20241;-82
2023/07/08 22:05:00;;;;;;;1.70;1.00;;;;;;;;;;20909859;28;20274;-83
2023/07/08 22:15:03;;;;;;;2.92;1.08;;;;;;;;;;20968613;28;20573;-82
2023/07/08 22:25:14;;;;;;;1.90;1.05;;;28.20;96.80;;;;;;20957636;28;20666;-81
2023/07/08 22:35:21;;;;;;;2.67;1.45;;;28.20;94.10;;;;;;20949313;28;20209;-82
2023/07/08 22:45:23;;;;;;;2.70;1.15;;;;;;;;;;20942751;28;20588;-82
2023/07/08 22:55:28;;;;;;;3.33;1.20;;;;;;;;;;20918334;28;20245;-82
2023/07/08 23:05:30;;;;;;;2.67;1.40;;;27.80;97.40;;;;;;20964013;28;20240;-83
2023/07/08 23:15:32;;;;;;;2.35;1.10;;;;;;;;;;20913561;28;20229;-83
2023/07/08 23:25:34;;;;;;;3.55;1.13;;;;;;;;;;20931850;28;20266;-83
2023/07/08 23:35:35;;;;;;;4.07;1.40;;;;;;;;;;20956149;28;20304;-83
2023/07/08 23:45:37;;;;;;;2.28;1.20;;;;;;;;;;20900973;28;20250;-84
2023/07/08 23:55:39;;;;;;;3.63;1.55;;;;;;;;;;20965605;28;20306;-82
